Terminal Aerodrome Forecast
Issued by NWS Wilmington, OH

Current Version | Previous Version | Graphics & Text | Print | Product List | Glossary On
Versions: 1 2 3 4 5 6 7 8 9 10 11 12 13 14 15 16 17 18 19 20 21
000
FTUS41 KILN 191000 AAA
TAFCMH
TAF AMD
KCMH 191011Z 1910/2006 18010KT P6SM SCT250
     FM191300 18010G18KT P6SM SCT050 BKN100
     FM191500 18016G26KT P6SM SCT050 BKN100
     FM191900 19018G28KT P6SM SCT040 OVC100
     FM192100 21018G25KT P6SM -SHSN OVC030
     FM192300 25015KT 6SM -SHSN OVC015
     FM200500 25013KT P6SM OVC025=

USA.gov is the U.S. government's official web portal to all federal, state and local government web resources and services.